createdAt,value
2022-09-10T00:01:52.538Z,18.70
2022-09-10T00:04:21.531Z,18.70
2022-09-10T00:06:51.080Z,18.70
2022-09-10T00:09:20.071Z,18.60
2022-09-10T00:11:50.665Z,18.60
2022-09-10T00:14:22.307Z,18.60
2022-09-10T00:16:51.542Z,18.60
2022-09-10T00:19:21.765Z,18.50
2022-09-10T00:21:51.376Z,18.50
2022-09-10T00:24:22.512Z,18.50
2022-09-10T00:26:52.841Z,18.50
2022-09-10T00:29:21.944Z,18.50
2022-09-10T00:31:51.750Z,18.40
2022-09-10T00:34:20.745Z,18.40
2022-09-10T00:36:49.789Z,18.40
2022-09-10T00:39:20.250Z,18.40
2022-09-10T00:41:52.722Z,18.40
2022-09-10T00:44:59.441Z,18.30
2022-09-10T00:47:34.196Z,18.30
2022-09-10T00:50:09.247Z,18.40
2022-09-10T00:52:40.052Z,18.40
2022-09-10T00:55:10.666Z,18.40
2022-09-10T00:57:42.916Z,18.40
2022-09-10T01:00:15.558Z,18.50
2022-09-10T01:02:45.104Z,18.50
2022-09-10T01:05:17.327Z,18.50
2022-09-10T01:07:46.440Z,18.40
2022-09-10T01:10:20.470Z,18.50
2022-09-10T01:13:16.275Z,18.40
2022-09-10T01:15:53.794Z,18.50
2022-09-10T01:18:34.565Z,18.40
2022-09-10T01:21:24.227Z,18.40
2022-09-10T01:24:28.930Z,18.40
2022-09-10T01:27:39.948Z,18.40
2022-09-10T01:30:15.614Z,18.30
2022-09-10T01:33:04.081Z,18.30
2022-09-10T01:35:45.858Z,18.30
2022-09-10T01:38:21.275Z,18.10
2022-09-10T01:40:50.901Z,18.00
2022-09-10T01:43:24.666Z,18.00
2022-09-10T01:46:20.303Z,18.00
2022-09-10T01:49:16.129Z,17.90
2022-09-10T01:52:03.908Z,17.90
2022-09-10T01:54:51.391Z,17.90
2022-09-10T01:57:31.616Z,18.00
2022-09-10T02:00:10.443Z,18.00
2022-09-10T02:02:49.226Z,18.00
2022-09-10T02:05:22.357Z,18.00
2022-09-10T02:08:00.221Z,18.10
2022-09-10T02:10:29.629Z,18.10
2022-09-10T02:12:58.722Z,18.10
2022-09-10T02:15:49.171Z,18.10
2022-09-10T02:18:23.271Z,18.00
2022-09-10T02:20:55.994Z,18.10
2022-09-10T02:23:31.681Z,18.10
2022-09-10T02:26:00.747Z,18.10
2022-09-10T02:28:31.271Z,18.10
2022-09-10T02:31:01.713Z,18.10
2022-09-10T02:33:31.045Z,18.10
2022-09-10T02:36:00.671Z,18.10
2022-09-10T02:38:30.654Z,18.10
2022-09-10T02:40:59.862Z,18.10
2022-09-10T02:43:29.551Z,18.10
2022-09-10T02:46:04.495Z,18.00
2022-09-10T02:48:33.735Z,18.10
2022-09-10T02:51:03.233Z,18.10
2022-09-10T02:53:32.490Z,18.00
2022-09-10T02:56:07.703Z,18.10
2022-09-10T02:58:38.328Z,18.10
2022-09-10T03:01:12.764Z,18.10
2022-09-10T03:03:43.287Z,18.10
2022-09-10T03:06:12.509Z,18.10
2022-09-10T03:08:43.413Z,18.10
2022-09-10T03:11:16.426Z,18.10
2022-09-10T03:13:46.389Z,18.10
2022-09-10T03:16:18.468Z,18.10
2022-09-10T03:18:48.050Z,18.00
2022-09-10T03:21:20.180Z,18.00
2022-09-10T03:23:52.598Z,18.10
2022-09-10T03:26:26.663Z,18.10
2022-09-10T03:28:56.639Z,18.00
2022-09-10T03:31:29.357Z,18.00
2022-09-10T03:34:01.360Z,18.00
2022-09-10T03:36:31.574Z,18.10
2022-09-10T03:39:02.162Z,18.10
2022-09-10T03:41:33.236Z,18.10
2022-09-10T03:44:03.774Z,18.10
2022-09-10T03:46:34.214Z,18.10
2022-09-10T03:49:05.731Z,18.10
2022-09-10T03:51:36.337Z,18.10
2022-09-10T03:54:06.047Z,18.10
2022-09-10T03:56:35.855Z,18.10
2022-09-10T03:59:04.855Z,18.00
2022-09-10T04:01:35.250Z,18.00
2022-09-10T04:04:08.190Z,17.90
2022-09-10T04:06:38.307Z,17.90
2022-09-10T04:09:07.873Z,17.90
2022-09-10T04:11:37.294Z,17.80
2022-09-10T04:14:06.284Z,17.90
2022-09-10T04:16:39.980Z,17.90
2022-09-10T04:19:11.155Z,17.90
2022-09-10T04:21:40.299Z,17.90
2022-09-10T04:24:12.283Z,17.90
2022-09-10T04:26:41.453Z,17.90
2022-09-10T04:29:13.140Z,17.90
2022-09-10T04:31:44.847Z,17.90
2022-09-10T04:34:15.813Z,17.90
2022-09-10T04:36:45.603Z,17.90
2022-09-10T04:39:15.531Z,17.90
2022-09-10T04:41:44.524Z,17.90
2022-09-10T04:44:13.600Z,18.00
2022-09-10T04:46:44.802Z,18.00
2022-09-10T04:49:13.839Z,17.90
2022-09-10T04:51:42.777Z,17.90
2022-09-10T04:54:15.044Z,17.80
2022-09-10T04:56:47.427Z,17.90
2022-09-10T04:59:16.389Z,17.90
2022-09-10T05:01:50.515Z,17.90
2022-09-10T05:04:20.869Z,18.00
2022-09-10T05:06:50.653Z,17.90
2022-09-10T05:09:19.981Z,17.90
2022-09-10T05:11:49.703Z,18.00
2022-09-10T05:14:20.161Z,18.00
2022-09-10T05:16:50.523Z,18.00
2022-09-10T05:19:19.718Z,18.00
2022-09-10T05:21:53.335Z,18.00
2022-09-10T05:24:22.283Z,18.00
2022-09-10T05:26:51.310Z,18.00
2022-09-10T05:29:22.128Z,18.00
2022-09-10T05:31:53.112Z,17.90
2022-09-10T05:34:22.403Z,17.90
2022-09-10T05:36:53.092Z,17.90
2022-09-10T05:39:22.123Z,18.00
2022-09-10T05:41:51.139Z,17.90
2022-09-10T05:44:20.218Z,17.90
2022-09-10T05:46:49.949Z,17.90
2022-09-10T05:49:20.489Z,18.00
2022-09-10T05:51:49.473Z,18.10
2022-09-10T05:54:18.721Z,18.10
2022-09-10T05:56:47.896Z,18.10
2022-09-10T05:59:16.903Z,18.10
2022-09-10T06:01:52.117Z,18.20
2022-09-10T06:04:24.588Z,18.20
2022-09-10T06:06:54.375Z,18.20
2022-09-10T06:09:23.601Z,18.20
2022-09-10T06:12:00.031Z,18.20
2022-09-10T06:14:29.059Z,18.10
2022-09-10T06:16:58.514Z,18.10
2022-09-10T06:19:32.070Z,18.10
2022-09-10T06:22:01.290Z,18.20
2022-09-10T06:24:31.696Z,18.20
2022-09-10T06:27:02.363Z,18.20
2022-09-10T06:29:36.403Z,18.20
2022-09-10T06:32:06.939Z,18.20
2022-09-10T06:34:37.308Z,18.20
2022-09-10T06:37:07.905Z,18.20
2022-09-10T06:39:39.951Z,18.20
2022-09-10T06:42:09.855Z,18.20
2022-09-10T06:45:00.179Z,18.20
2022-09-10T06:50:56.122Z,18.20
2022-09-10T06:53:30.343Z,18.30
2022-09-10T06:56:01.963Z,18.30
2022-09-10T06:58:35.070Z,18.30
2022-09-10T07:01:12.535Z,18.40
2022-09-10T07:03:43.960Z,18.40
2022-09-10T07:06:16.951Z,18.50
2022-09-10T07:08:49.466Z,18.50
2022-09-10T07:11:19.010Z,18.50
2022-09-10T07:13:52.104Z,18.60
2022-09-10T07:16:25.000Z,18.60
2022-09-10T07:18:57.630Z,18.60
2022-09-10T07:21:37.838Z,18.70
2022-09-10T07:24:14.368Z,18.80
2022-09-10T07:26:51.584Z,18.80
2022-09-10T07:29:20.686Z,18.80
2022-09-10T07:31:49.703Z,18.90
2022-09-10T07:34:24.369Z,19.00
2022-09-10T07:36:56.646Z,19.00
2022-09-10T07:39:26.894Z,19.10
2022-09-10T07:41:59.483Z,19.20
2022-09-10T07:44:31.403Z,19.20
2022-09-10T07:47:04.242Z,19.20
2022-09-10T07:49:34.634Z,19.30
2022-09-10T07:52:07.209Z,19.30
2022-09-10T07:54:49.444Z,19.30
2022-09-10T07:57:18.546Z,19.40
2022-09-10T07:59:48.325Z,19.30
2022-09-10T08:02:22.016Z,19.40
2022-09-10T08:04:57.358Z,19.40
2022-09-10T08:07:28.107Z,19.40
2022-09-10T08:09:58.136Z,19.40
2022-09-10T08:12:27.329Z,19.30
2022-09-10T08:14:57.706Z,19.40
2022-09-10T08:17:29.692Z,19.50
2022-09-10T08:19:58.908Z,19.50
2022-09-10T08:22:29.398Z,19.70
2022-09-10T08:24:59.570Z,19.70
2022-09-10T08:27:34.393Z,19.70
2022-09-10T08:30:07.577Z,19.80
2022-09-10T08:32:36.967Z,19.90
2022-09-10T08:35:07.446Z,20.00
2022-09-10T08:37:38.133Z,20.10
2022-09-10T08:40:11.882Z,20.10
2022-09-10T08:42:46.546Z,20.10
2022-09-10T08:45:23.587Z,20.20
2022-09-10T08:47:59.941Z,20.30
2022-09-10T08:50:39.440Z,20.30
2022-09-10T08:53:26.273Z,20.30
2022-09-10T08:56:02.926Z,20.30
2022-09-10T08:58:42.290Z,20.30
2022-09-10T09:01:30.339Z,20.40
2022-09-10T09:04:04.924Z,20.40
2022-09-10T09:06:43.783Z,20.40
2022-09-10T09:09:16.011Z,20.30
2022-09-10T09:11:54.944Z,20.40
2022-09-10T09:14:51.494Z,20.40
2022-09-10T09:17:52.548Z,20.60
2022-09-10T09:20:35.999Z,20.60
2022-09-10T09:23:15.265Z,20.70
2022-09-10T09:25:50.975Z,20.70
2022-09-10T09:28:32.501Z,20.70
2022-09-10T09:31:09.294Z,20.60
2022-09-10T09:33:40.135Z,20.40
2022-09-10T09:36:17.507Z,20.40
2022-09-10T09:38:50.812Z,20.50
2022-09-10T09:41:31.115Z,20.50
2022-09-10T09:44:04.975Z,20.60
2022-09-10T09:46:35.364Z,20.60
2022-09-10T09:49:15.967Z,20.60
2022-09-10T09:51:48.462Z,20.60
2022-09-10T09:57:20.547Z,20.20
2022-09-10T09:59:52.228Z,20.30
2022-09-10T10:02:25.495Z,20.40
2022-09-10T10:05:01.820Z,20.30
2022-09-10T10:07:33.577Z,20.30
2022-09-10T10:10:05.993Z,20.30
2022-09-10T10:12:42.938Z,20.20
2022-09-10T10:15:39.666Z,20.20
2022-09-10T10:18:31.604Z,20.30
2022-09-10T10:21:19.854Z,20.00
2022-09-10T10:23:49.907Z,20.20
2022-09-10T10:26:30.327Z,20.20
2022-09-10T10:29:04.110Z,20.10
2022-09-10T10:31:41.648Z,20.10
2022-09-10T10:34:37.362Z,20.10
2022-09-10T10:37:14.805Z,20.00
2022-09-10T10:40:08.848Z,19.90
2022-09-10T10:42:41.947Z,19.90
2022-09-10T10:45:29.106Z,19.80
2022-09-10T10:48:10.492Z,19.80
2022-09-10T10:50:54.426Z,19.90
2022-09-10T10:53:48.697Z,19.80
2022-09-10T10:56:26.804Z,19.70
2022-09-10T10:59:24.069Z,19.70
2022-09-10T11:01:59.271Z,19.80
2022-09-10T11:04:42.490Z,20.00
2022-09-10T11:07:18.194Z,20.10
2022-09-10T11:09:54.952Z,20.20
2022-09-10T11:12:31.813Z,20.40
2022-09-10T11:15:15.182Z,20.60
2022-09-10T11:17:51.799Z,20.70
2022-09-10T11:20:29.483Z,20.80
2022-09-10T11:23:09.043Z,20.90
2022-09-10T11:25:46.688Z,20.90
2022-09-10T11:28:20.676Z,20.90
2022-09-10T11:30:55.662Z,21.00
2022-09-10T11:33:34.320Z,21.00
2022-09-10T11:36:12.967Z,20.90
2022-09-10T11:38:53.029Z,21.00
2022-09-10T11:41:25.829Z,21.00
2022-09-10T11:44:08.237Z,21.10
2022-09-10T11:46:40.600Z,20.90
2022-09-10T11:49:17.875Z,20.80
2022-09-10T11:51:48.698Z,20.90
2022-09-10T11:54:25.573Z,20.90
2022-09-10T11:57:03.060Z,20.70
2022-09-10T12:00:08.772Z,20.70
2022-09-10T12:03:31.853Z,20.70
2022-09-10T12:06:07.094Z,20.60
2022-09-10T12:09:00.965Z,20.70
2022-09-10T12:11:43.286Z,20.80
2022-09-10T12:14:18.608Z,20.80
2022-09-10T12:16:53.253Z,20.80
2022-09-10T12:19:29.213Z,20.90
2022-09-10T12:22:03.240Z,20.90
2022-09-10T12:24:39.477Z,20.90
2022-09-10T12:27:13.732Z,21.10
2022-09-10T12:29:42.775Z,21.30
2022-09-10T12:32:38.970Z,21.30
2022-09-10T12:35:48.186Z,21.10
2022-09-10T12:38:56.281Z,21.10
2022-09-10T12:42:02.446Z,21.30
2022-09-10T12:44:48.073Z,21.30
2022-09-10T12:47:52.002Z,21.30
2022-09-10T12:50:46.562Z,21.40
2022-09-10T12:54:06.423Z,21.50
2022-09-10T12:57:27.574Z,21.30
2022-09-10T13:00:22.034Z,21.30
2022-09-10T13:02:58.227Z,21.20
2022-09-10T13:05:34.927Z,21.30
2022-09-10T13:08:14.062Z,21.30
2022-09-10T13:10:46.420Z,21.40
2022-09-10T13:13:37.530Z,21.40
2022-09-10T13:16:13.182Z,21.50
2022-09-10T13:18:42.306Z,21.50
2022-09-10T13:21:52.883Z,21.60
2022-09-10T13:24:40.057Z,21.50
2022-09-10T13:27:22.991Z,21.50
2022-09-10T13:30:11.551Z,21.60
2022-09-10T13:32:52.096Z,21.50
2022-09-10T13:36:11.330Z,21.50
2022-09-10T13:39:15.832Z,21.60
2022-09-10T13:42:12.767Z,21.60
2022-09-10T13:45:09.513Z,21.60
2022-09-10T13:47:46.200Z,21.60
2022-09-10T13:50:19.043Z,21.60
2022-09-10T13:52:55.017Z,21.60
2022-09-10T13:55:28.132Z,21.50
2022-09-10T13:58:01.843Z,21.60
2022-09-10T14:00:40.287Z,21.70
2022-09-10T14:03:17.687Z,21.60
2022-09-10T14:05:53.030Z,21.60
2022-09-10T14:08:27.798Z,21.50
2022-09-10T14:11:01.085Z,21.50
2022-09-10T14:13:35.365Z,21.40
2022-09-10T14:16:09.587Z,21.20
2022-09-10T14:18:45.500Z,21.10
2022-09-10T14:21:16.597Z,21.10
2022-09-10T14:23:47.143Z,21.00
2022-09-10T14:26:23.302Z,20.90
2022-09-10T14:28:56.771Z,21.00
2022-09-10T14:31:36.124Z,21.00
2022-09-10T14:34:32.534Z,21.00
2022-09-10T14:37:02.605Z,21.00
2022-09-10T14:39:31.954Z,21.10
2022-09-10T14:42:22.401Z,21.20
2022-09-10T14:44:51.527Z,21.10
2022-09-10T14:47:37.214Z,21.10
2022-09-10T14:50:30.953Z,21.00
2022-09-10T14:53:04.148Z,21.00
2022-09-10T14:55:33.989Z,20.80
2022-09-10T14:58:03.275Z,20.70
2022-09-10T15:00:35.278Z,20.60
2022-09-10T15:03:05.719Z,20.80
2022-09-10T15:05:34.750Z,20.80
2022-09-10T15:08:04.325Z,20.70
2022-09-10T15:10:33.363Z,20.80
2022-09-10T15:13:02.463Z,20.70
2022-09-10T15:15:32.011Z,20.80
2022-09-10T15:18:00.982Z,20.90
2022-09-10T15:20:31.321Z,20.90
2022-09-10T15:23:04.229Z,20.90
2022-09-10T15:25:38.861Z,21.00
2022-09-10T15:28:08.207Z,21.10
2022-09-10T15:30:37.596Z,21.00
2022-09-10T15:33:08.659Z,21.00
2022-09-10T15:35:39.966Z,20.90
2022-09-10T15:38:14.162Z,20.70
2022-09-10T15:40:43.595Z,20.20
2022-09-10T15:43:12.835Z,19.60
2022-09-10T15:45:42.047Z,19.40
2022-09-10T15:48:11.143Z,19.40
2022-09-10T15:50:43.307Z,19.30
2022-09-10T15:53:21.386Z,19.30
2022-09-10T15:55:53.258Z,19.30
2022-09-10T15:58:22.284Z,19.30
2022-09-10T16:00:51.263Z,19.40
2022-09-10T16:03:22.301Z,19.50
2022-09-10T16:05:52.940Z,19.60
2022-09-10T16:08:22.443Z,19.70
2022-09-10T16:10:53.059Z,20.00
2022-09-10T16:13:22.705Z,19.90
2022-09-10T16:16:03.256Z,20.00
2022-09-10T16:18:33.958Z,19.90
2022-09-10T16:21:12.175Z,20.00
2022-09-10T16:23:43.648Z,20.00
2022-09-10T16:26:16.749Z,20.00
2022-09-10T16:28:50.467Z,20.10
2022-09-10T16:31:23.522Z,20.20
2022-09-10T16:33:55.166Z,20.30
2022-09-10T16:36:26.058Z,20.20
2022-09-10T16:38:56.896Z,20.20
2022-09-10T16:41:27.155Z,20.20
2022-09-10T16:43:59.283Z,19.90
2022-09-10T16:46:29.072Z,20.00
2022-09-10T16:48:59.584Z,19.90
2022-09-10T16:51:32.589Z,20.00
2022-09-10T16:54:05.866Z,20.00
2022-09-10T16:56:40.105Z,20.00
2022-09-10T16:59:14.894Z,20.00
2022-09-10T17:01:45.919Z,19.90
2022-09-10T17:04:20.660Z,19.90
2022-09-10T17:06:54.021Z,19.90
2022-09-10T17:09:23.155Z,20.00
2022-09-10T17:11:52.315Z,20.00
2022-09-10T17:14:25.124Z,20.10
2022-09-10T17:17:04.831Z,20.10
2022-09-10T17:19:37.530Z,20.10
2022-09-10T17:22:08.209Z,20.00
2022-09-10T17:24:44.607Z,20.00
2022-09-10T17:27:14.290Z,20.00
2022-09-10T17:29:43.487Z,20.00
2022-09-10T17:32:12.706Z,19.90
2022-09-10T17:34:41.809Z,19.80
2022-09-10T17:37:12.419Z,19.70
2022-09-10T17:39:41.584Z,19.70
2022-09-10T17:42:10.585Z,19.50
2022-09-10T17:44:39.526Z,19.60
2022-09-10T17:47:09.585Z,19.60
2022-09-10T17:49:38.882Z,19.60
2022-09-10T17:52:07.947Z,19.60
2022-09-10T17:54:38.411Z,19.70
2022-09-10T17:57:07.723Z,19.70
2022-09-10T17:59:37.171Z,19.70
2022-09-10T18:02:06.296Z,19.70
2022-09-10T18:04:35.539Z,19.70
2022-09-10T18:07:04.741Z,19.70
2022-09-10T18:09:33.784Z,19.70
2022-09-10T18:12:04.942Z,19.60
2022-09-10T18:14:33.906Z,19.60
2022-09-10T18:17:02.882Z,19.60
2022-09-10T18:19:33.084Z,19.60
2022-09-10T18:22:02.453Z,19.60
2022-09-10T18:24:31.670Z,19.60
2022-09-10T18:27:04.503Z,19.50
2022-09-10T18:29:35.574Z,19.50
2022-09-10T18:32:04.811Z,19.50
2022-09-10T18:34:33.806Z,19.50
2022-09-10T18:37:04.318Z,19.40
2022-09-10T18:39:35.831Z,19.40
2022-09-10T18:42:06.385Z,19.40
2022-09-10T18:44:37.512Z,19.30
2022-09-10T18:47:28.001Z,19.30
2022-09-10T18:50:05.348Z,19.30
2022-09-10T18:52:36.767Z,19.30
2022-09-10T18:55:09.676Z,19.40
2022-09-10T18:57:41.458Z,19.30
2022-09-10T19:00:16.578Z,19.30
2022-09-10T19:02:49.629Z,19.20
2022-09-10T19:05:22.798Z,19.30
2022-09-10T19:07:51.948Z,19.20
2022-09-10T19:10:24.660Z,19.20
2022-09-10T19:12:56.188Z,19.20
2022-09-10T19:15:29.070Z,19.30
2022-09-10T19:18:05.735Z,19.20
2022-09-10T19:20:40.932Z,19.20
2022-09-10T19:23:11.892Z,19.00
2022-09-10T19:25:42.221Z,19.00
2022-09-10T19:28:12.935Z,19.00
2022-09-10T19:30:48.578Z,18.90
2022-09-10T19:33:20.917Z,18.90
2022-09-10T19:35:56.485Z,19.20
2022-09-10T19:38:37.539Z,18.80
2022-09-10T19:41:09.933Z,18.70
2022-09-10T19:43:42.062Z,18.70
2022-09-10T19:46:13.134Z,18.60
2022-09-10T19:48:44.525Z,18.70
2022-09-10T19:51:21.010Z,18.70
2022-09-10T19:53:57.922Z,18.60
2022-09-10T19:56:33.065Z,18.60
2022-09-10T19:59:09.639Z,18.60
2022-09-10T20:01:44.871Z,18.60
2022-09-10T20:04:23.933Z,18.70
2022-09-10T20:06:58.984Z,18.70
2022-09-10T20:09:30.546Z,18.70
2022-09-10T20:11:59.647Z,18.70
2022-09-10T20:14:28.781Z,18.80
2022-09-10T20:16:59.453Z,18.80
2022-09-10T20:19:29.270Z,18.60
2022-09-10T20:21:58.603Z,18.60
2022-09-10T20:24:28.442Z,18.60
2022-09-10T20:26:58.836Z,18.60
2022-09-10T20:29:32.854Z,18.60
2022-09-10T20:32:03.598Z,18.50
2022-09-10T20:34:32.579Z,18.60
2022-09-10T20:37:01.550Z,18.60
2022-09-10T20:39:31.726Z,18.60
2022-09-10T20:42:00.760Z,18.50
2022-09-10T20:44:30.120Z,18.40
2022-09-10T20:46:59.095Z,18.50
2022-09-10T20:49:29.418Z,18.40
2022-09-10T20:51:59.583Z,18.50
2022-09-10T20:54:28.644Z,18.50
2022-09-10T20:56:57.827Z,18.40
2022-09-10T20:59:27.937Z,18.50
2022-09-10T21:01:57.166Z,18.40
2022-09-10T21:04:26.482Z,18.40
2022-09-10T21:06:56.834Z,18.50
2022-09-10T21:09:26.171Z,18.50
2022-09-10T21:11:58.524Z,18.50
2022-09-10T21:14:27.778Z,18.40
2022-09-10T21:16:56.866Z,18.50
2022-09-10T21:19:26.461Z,18.50
2022-09-10T21:21:56.878Z,18.60
2022-09-10T21:24:26.929Z,18.60
2022-09-10T21:26:56.377Z,18.60
2022-09-10T21:29:25.420Z,18.60
2022-09-10T21:31:54.674Z,18.60
2022-09-10T21:34:24.115Z,18.60
2022-09-10T21:36:53.124Z,18.60
2022-09-10T21:39:23.615Z,18.50
2022-09-10T21:41:52.595Z,18.40
2022-09-10T21:44:25.009Z,18.40
2022-09-10T21:46:54.280Z,18.50
2022-09-10T21:49:23.258Z,18.50
2022-09-10T21:51:52.476Z,18.50
2022-09-10T21:54:25.385Z,18.40
2022-09-10T21:56:55.014Z,18.40
2022-09-10T21:59:25.486Z,18.40
2022-09-10T22:01:55.410Z,18.40
2022-09-10T22:04:24.490Z,18.40
2022-09-10T22:06:53.881Z,18.40
2022-09-10T22:09:26.392Z,18.40
2022-09-10T22:11:56.649Z,18.30
2022-09-10T22:14:26.507Z,18.30
2022-09-10T22:16:55.912Z,18.30
2022-09-10T22:19:27.252Z,18.30
2022-09-10T22:21:57.277Z,18.30
2022-09-10T22:24:27.733Z,18.30
2022-09-10T22:26:56.788Z,18.30
2022-09-10T22:29:25.884Z,18.40
2022-09-10T22:31:55.621Z,18.40
2022-09-10T22:34:24.975Z,18.40
2022-09-10T22:36:54.134Z,18.40
2022-09-10T22:39:23.547Z,18.40
2022-09-10T22:41:55.298Z,18.40
2022-09-10T22:44:24.810Z,18.40
2022-09-10T22:46:53.836Z,18.40
2022-09-10T22:49:23.118Z,18.40
2022-09-10T22:51:52.330Z,18.40
2022-09-10T22:54:21.370Z,18.40
2022-09-10T22:56:54.699Z,18.40
2022-09-10T22:59:23.698Z,18.50
2022-09-10T23:01:52.729Z,18.50
2022-09-10T23:04:21.753Z,18.50
2022-09-10T23:06:50.861Z,18.50
2022-09-10T23:09:20.114Z,18.50
2022-09-10T23:11:49.216Z,18.50
2022-09-10T23:14:21.974Z,18.50
2022-09-10T23:16:52.008Z,18.50
2022-09-10T23:19:23.432Z,18.50
2022-09-10T23:21:57.175Z,18.50
2022-09-10T23:24:28.203Z,18.50
2022-09-10T23:26:58.030Z,18.50
2022-09-10T23:29:28.449Z,18.40
2022-09-10T23:31:57.931Z,18.40
2022-09-10T23:34:27.038Z,18.60
2022-09-10T23:36:56.217Z,18.40
2022-09-10T23:39:26.910Z,18.40
2022-09-10T23:41:58.271Z,18.40
2022-09-10T23:44:30.980Z,18.40
2022-09-10T23:47:00.179Z,18.40
2022-09-10T23:49:29.288Z,18.40
2022-09-10T23:51:58.269Z,18.30
2022-09-10T23:54:29.392Z,18.30
2022-09-10T23:56:58.449Z,18.30
2022-09-10T23:59:28.782Z,18.30
